Time;durP1;ratioP1;P1;durP2;ratioP2;P2;SDS_P1;SDS_P2;PMS_P1;PMS_P2;Temp;Humidity;BMP_temperature;BMP_pressure;BME280_temperature;BME280_humidity;BME280_pressure;Samples;Min_cycle;Max_cycle;Signal;HPM_P1;HPM_P2
2021/07/18 00:02:13;;;;;;;;;16.40;16.40;;;;;26.57;58.81;98453.56;6074972;28;97472;-66
2021/07/18 00:05:17;;;;;;;;;17.00;17.00;;;;;26.55;58.70;98456.66;6077975;28;97403;-66
2021/07/18 00:08:21;;;;;;;;;20.00;18.00;;;;;26.50;58.50;98470.69;6082901;28;97132;-66
2021/07/18 00:11:24;;;;;;;;;19.00;17.60;;;;;26.45;58.98;98483.91;6066961;28;97167;-66
2021/07/18 00:14:29;;;;;;;;;17.40;16.00;;;;;26.53;58.80;98483.03;6086645;28;96692;-64
2021/07/18 00:17:36;;;;;;;;;19.50;17.00;;;;;26.53;58.84;98485.81;6081646;28;97493;-64
2021/07/18 00:20:40;;;;;;;;;19.00;17.00;;;;;26.50;58.95;98483.69;6058895;28;96534;-65
2021/07/18 00:23:43;;;;;;;;;18.00;18.00;;;;;26.49;58.94;98480.13;6074714;28;97138;-65
2021/07/18 00:26:46;;;;;;;;;19.00;17.40;;;;;26.41;59.25;98478.25;6065300;28;99574;-64
2021/07/18 00:29:51;;;;;;;;;18.60;18.20;;;;;26.43;59.53;98495.31;6053925;28;98543;-67
2021/07/18 00:32:55;;;;;;;;;17.40;17.00;;;;;26.51;59.25;98494.44;6077212;28;96684;-65
2021/07/18 00:35:59;;;;;;;;;17.60;16.00;;;;;26.64;58.90;98498.88;6081793;28;97490;-65
2021/07/18 00:39:02;;;;;;;;;19.00;17.60;;;;;26.67;58.64;98494.66;6065089;28;99059;-65
2021/07/18 00:42:06;;;;;;;;;15.40;15.40;;;;;26.65;58.63;98489.44;6063594;28;98250;-64
2021/07/18 00:45:12;;;;;;;;;17.00;15.25;;;;;26.67;58.64;98489.94;6078409;28;96576;-65
2021/07/18 00:48:15;;;;;;;;;15.00;13.60;;;;;26.74;57.91;98489.38;6053708;28;96847;-66
2021/07/18 00:51:19;;;;;;;;;17.00;14.00;;;;;26.81;57.95;98497.13;6087261;28;96674;-67
2021/07/18 00:54:22;;;;;;;;;20.00;18.00;;;;;26.69;58.30;98512.50;6073949;28;96751;-65
2021/07/18 00:57:26;;;;;;;;;17.00;16.00;;;;;26.70;58.30;98516.09;6051639;28;98847;-65
2021/07/18 01:00:31;;;;;;;;;15.80;14.40;;;;;26.70;58.45;98497.53;6068968;28;97563;-64
2021/07/18 01:03:34;;;;;;;;;14.60;14.60;;;;;26.66;58.47;98491.06;6075444;28;97455;-63
2021/07/18 01:06:38;;;;;;;;;15.00;14.60;;;;;26.65;58.43;98485.88;6082172;28;96971;-67
2021/07/18 01:09:41;;;;;;;;;13.60;13.00;;;;;26.71;58.54;98481.75;6064033;28;97706;-65
2021/07/18 01:12:44;;;;;;;;;16.00;14.00;;;;;26.65;58.87;98483.91;6057047;28;96492;-66
2021/07/18 01:16:10;;;;;;;;;18.00;17.00;;;;;26.70;59.03;98492.00;6073922;28;96987;-66
2021/07/18 01:19:19;;;;;;;;;19.80;18.40;;;;;26.72;58.64;98494.44;6086019;28;96861;-64
2021/07/18 01:22:24;;;;;;;;;18.00;17.00;;;;;26.77;59.15;98493.44;6070049;28;96684;-64
2021/07/18 01:25:27;;;;;;;;;18.40;17.00;;;;;26.74;58.88;98487.41;6080034;28;97087;-66
2021/07/18 01:28:31;;;;;;;;;18.00;16.50;;;;;26.78;58.95;98486.78;6072867;28;97590;-64
2021/07/18 01:31:35;;;;;;;;;20.20;18.80;;;;;26.77;59.14;98491.47;6048350;28;98738;-66
2021/07/18 01:34:38;;;;;;;;;19.00;18.00;;;;;26.78;59.00;98514.44;6082112;28;96655;-66
2021/07/18 01:37:43;;;;;;;;;22.60;20.40;;;;;26.79;58.96;98511.31;6073079;28;97285;-64
2021/07/18 01:40:46;;;;;;;;;20.00;18.00;;;;;26.79;58.55;98502.19;6058390;28;97099;-65
2021/07/18 01:43:49;;;;;;;;;17.00;16.20;;;;;26.81;59.23;98519.28;6068120;28;97355;-66
2021/07/18 01:46:53;;;;;;;;;19.00;18.00;;;;;26.69;59.17;98512.50;6075096;28;97519;-64
2021/07/18 01:49:56;;;;;;;;;20.20;18.80;;;;;26.68;59.43;98543.28;6071308;28;96503;-66
2021/07/18 01:53:01;;;;;;;;;16.00;15.20;;;;;26.63;59.84;98549.00;6055411;28;97380;-66
2021/07/18 01:56:05;;;;;;;;;20.00;18.80;;;;;26.57;60.35;98545.63;6067810;28;96526;-64
2021/07/18 01:59:08;;;;;;;;;21.00;18.40;;;;;26.56;60.25;98535.72;6059056;28;100263;-65
2021/07/18 02:02:13;;;;;;;;;17.25;16.50;;;;;26.55;59.99;98539.59;6084708;28;97259;-64
2021/07/18 02:05:17;;;;;;;;;19.00;18.00;;;;;26.57;59.72;98534.56;6082225;28;96562;-66
2021/07/18 02:08:22;;;;;;;;;18.00;18.00;;;;;26.57;59.83;98536.53;6037397;28;97679;-65
2021/07/18 02:11:27;;;;;;;;;20.00;18.00;;;;;26.59;59.87;98536.97;6048672;28;97293;-65
2021/07/18 02:14:31;;;;;;;;;22.60;20.60;;;;;26.53;59.55;98532.81;6084497;28;96670;-65
2021/07/18 02:17:35;;;;;;;;;21.40;19.00;;;;;26.52;58.98;98520.94;6048907;28;96427;-64
2021/07/18 02:20:38;;;;;;;;;16.00;16.00;;;;;26.56;59.04;98516.34;6059528;28;97455;-64
2021/07/18 02:23:43;;;;;;;;;20.50;18.50;;;;;26.58;58.74;98516.84;6051850;28;97557;-66
2021/07/18 02:26:46;;;;;;;;;16.00;16.00;;;;;26.66;58.89;98515.16;6083208;28;96516;-66
2021/07/18 02:29:49;;;;;;;;;21.00;17.60;;;;;26.68;58.28;98507.34;6080484;28;97504;-66
2021/07/18 02:32:53;;;;;;;;;20.00;18.00;;;;;26.67;58.24;98512.06;6078966;28;97474;-64
2021/07/18 02:35:57;;;;;;;;;18.00;17.00;;;;;26.61;57.95;98527.22;6089787;28;97449;-66
2021/07/18 02:39:02;;;;;;;;;19.00;16.00;;;;;26.47;57.86;98526.66;6068635;28;97480;-64
2021/07/18 02:42:06;;;;;;;;;19.00;18.60;;;;;26.40;58.46;98540.19;6050459;28;100235;-64
2021/07/18 02:45:10;;;;;;;;;20.00;17.00;;;;;26.39;58.16;98540.53;6080372;28;96749;-65
2021/07/18 02:48:13;;;;;;;;;20.60;18.40;;;;;26.36;58.30;98522.66;6058556;28;97575;-63
2021/07/18 02:51:17;;;;;;;;;19.80;17.40;;;;;26.26;58.21;98525.78;6078916;28;96526;-66
2021/07/18 02:54:21;;;;;;;;;18.00;16.60;;;;;26.19;58.43;98517.19;6083657;28;96918;-65
2021/07/18 02:57:25;;;;;;;;;17.00;17.00;;;;;26.24;58.50;98517.81;6076547;28;97541;-63
2021/07/18 03:00:28;;;;;;;;;19.40;19.00;;;;;26.22;58.85;98509.06;6081199;28;96482;-64
2021/07/18 03:04:00;;;;;;;;;19.00;17.00;;;;;26.25;58.51;98505.63;6064884;28;99543;-65
2021/07/18 03:08:17;;;;;;;;;19.00;16.60;;;;;26.27;58.60;98505.31;6064068;28;97217;-66
2021/07/18 03:11:22;;;;;;;;;19.40;17.40;;;;;26.29;58.66;98495.53;6083778;28;96694;-66
2021/07/18 03:14:25;;;;;;;;;19.00;18.00;;;;;26.33;58.60;98492.13;6079883;28;97523;-63
2021/07/18 03:17:28;;;;;;;;;22.00;20.25;;;;;26.44;58.72;98476.78;6075544;28;97530;-64
2021/07/18 03:20:32;;;;;;;;;19.60;18.00;;;;;26.59;58.42;98487.22;6083922;28;97558;-65
2021/07/18 03:23:35;;;;;;;;;19.00;18.00;;;;;26.65;58.25;98481.16;6056592;28;97381;-65
2021/07/18 03:26:40;;;;;;;;;18.00;17.00;;;;;26.70;57.96;98491.19;6077089;28;96652;-64
2021/07/18 03:29:43;;;;;;;;;16.00;15.60;;;;;26.73;57.38;98480.25;6076577;28;96706;-64
2021/07/18 03:32:47;;;;;;;;;17.20;16.00;;;;;26.74;57.40;98487.41;6076284;28;96688;-64
2021/07/18 03:35:52;;;;;;;;;18.00;16.00;;;;;26.74;57.22;98497.66;6083305;28;97473;-66
2021/07/18 03:38:55;;;;;;;;;17.20;16.80;;;;;26.70;57.53;98505.03;6050283;28;97351;-64
2021/07/18 03:46:28;;;;;;;;;17.00;16.40;;;;;26.72;57.46;98511.03;6031134;28;98347;-64
2021/07/18 03:49:31;;;;;;;;;16.80;15.00;;;;;26.73;56.85;98509.91;6070845;28;97096;-66
2021/07/18 03:52:36;;;;;;;;;19.00;16.00;;;;;26.78;57.01;98501.38;6076617;28;96943;-65
2021/07/18 03:55:39;;;;;;;;;17.80;17.80;;;;;26.81;57.20;98494.38;6083328;28;98116;-66
2021/07/18 03:58:43;;;;;;;;;16.00;14.00;;;;;26.86;57.43;98502.47;6081213;28;97704;-65
2021/07/18 04:01:47;;;;;;;;;17.60;17.00;;;;;26.88;56.71;98495.47;6091103;28;97056;-65
2021/07/18 04:04:51;;;;;;;;;17.00;14.40;;;;;26.89;56.74;98510.13;6050350;28;97316;-65
2021/07/18 04:07:54;;;;;;;;;16.00;15.00;;;;;26.84;56.79;98513.88;6075326;28;97348;-65
2021/07/18 04:10:58;;;;;;;;;15.00;14.00;;;;;26.84;57.14;98524.13;6073266;28;96970;-64
2021/07/18 04:14:01;;;;;;;;;15.00;14.00;;;;;26.79;56.67;98522.38;6076935;28;96709;-64
2021/07/18 04:17:07;;;;;;;;;17.00;15.00;;;;;26.77;57.02;98521.09;6074104;28;96701;-66
2021/07/18 04:20:11;;;;;;;;;15.60;14.00;;;;;26.67;57.25;98534.19;6050844;28;97463;-64
2021/07/18 04:23:16;;;;;;;;;17.00;15.80;;;;;26.57;57.33;98528.22;6060202;28;96763;-66
2021/07/18 04:26:20;;;;;;;;;18.40;17.00;;;;;26.53;57.87;98527.28;6063147;28;96689;-64
2021/07/18 04:29:23;;;;;;;;;17.00;15.20;;;;;26.61;57.92;98531.94;6053565;28;97521;-65
2021/07/18 04:32:28;;;;;;;;;15.60;15.00;;;;;26.65;57.96;98530.13;6077516;28;96603;-65
2021/07/18 04:35:31;;;;;;;;;17.00;15.00;;;;;26.71;57.88;98526.00;6053955;28;96690;-64
2021/07/18 04:38:35;;;;;;;;;13.60;13.00;;;;;26.71;57.61;98523.25;6075891;28;96757;-64
2021/07/18 04:41:38;;;;;;;;;19.00;17.40;;;;;26.74;57.93;98525.31;6055096;28;97826;-66
2021/07/18 04:44:41;;;;;;;;;16.00;16.00;;;;;26.75;57.88;98532.50;6075908;28;97095;-64
2021/07/18 04:47:47;;;;;;;;;16.00;15.00;;;;;26.89;57.60;98524.75;6068966;28;97523;-64
2021/07/18 04:50:51;;;;;;;;;18.00;15.60;;;;;26.93;57.98;98530.41;6056918;28;96798;-65
2021/07/18 04:53:54;;;;;;;;;20.20;18.00;;;;;27.03;57.86;98530.81;6040391;28;98352;-65
2021/07/18 04:56:57;;;;;;;;;19.00;17.00;;;;;27.11;57.83;98521.66;6073093;28;96560;-63
2021/07/18 05:00:01;;;;;;;;;21.60;20.60;;;;;27.24;57.11;98527.22;6080911;28;98154;-65
2021/07/18 05:03:05;;;;;;;;;19.00;17.25;;;;;27.37;57.20;98531.66;6083342;28;96738;-63
2021/07/18 05:06:09;;;;;;;;;22.00;21.00;;;;;27.33;57.31;98514.13;6078998;28;97124;-64
2021/07/18 05:09:12;;;;;;;;;19.00;18.00;;;;;27.57;56.52;98531.66;6063978;28;96826;-66
2021/07/18 05:12:15;;;;;;;;;23.00;20.00;;;;;27.62;56.62;98530.63;6077027;28;96552;-65
2021/07/18 05:15:20;;;;;;;;;23.80;21.40;;;;;27.77;56.62;98526.38;6073641;28;96573;-63
2021/07/18 05:18:25;;;;;;;;;22.50;20.25;;;;;27.84;55.33;98530.22;6044124;28;96707;-65
2021/07/18 05:21:28;;;;;;;;;22.60;21.00;;;;;27.81;55.80;98532.84;6081043;28;98175;-65
2021/07/18 05:24:31;;;;;;;;;26.00;21.80;;;;;27.95;55.93;98534.16;6042448;28;96693;-63
2021/07/18 05:27:35;;;;;;;;;24.20;21.80;;;;;27.94;56.14;98535.31;6084087;28;97300;-63
2021/07/18 05:30:40;;;;;;;;;24.40;22.00;;;;;27.90;55.78;98544.66;6061229;28;97931;-65
2021/07/18 05:33:45;;;;;;;;;22.50;20.00;;;;;27.90;55.67;98545.47;6083352;28;98893;-65
2021/07/18 05:36:48;;;;;;;;;26.50;23.75;;;;;27.87;56.07;98551.69;6071847;28;96504;-64
2021/07/18 05:39:52;;;;;;;;;24.00;23.00;;;;;27.88;55.94;98546.97;6074305;28;97778;-65
2021/07/18 05:42:55;;;;;;;;;27.00;23.40;;;;;27.82;55.70;98553.88;6085211;28;98180;-65
2021/07/18 05:45:58;;;;;;;;;21.25;21.00;;;;;27.87;56.42;98556.41;6072045;28;97517;-66
2021/07/18 05:49:03;;;;;;;;;25.40;22.40;;;;;27.89;55.88;98563.25;6067097;28;98646;-65
2021/07/18 05:52:08;;;;;;;;;22.20;21.60;;;;;27.84;56.72;98557.13;6053453;28;98868;-65
2021/07/18 05:55:13;;;;;;;;;23.60;21.60;;;;;27.91;56.59;98565.66;6071087;28;97178;-64
2021/07/18 05:58:16;;;;;;;;;23.25;22.00;;;;;27.93;56.30;98566.94;6060023;28;97433;-66
2021/07/18 06:01:19;;;;;;;;;28.40;25.00;;;;;27.99;56.26;98567.53;6070760;28;97515;-66
2021/07/18 06:04:24;;;;;;;;;23.60;22.00;;;;;28.03;56.06;98565.69;6080925;28;97222;-64
2021/07/18 06:07:28;;;;;;;;;22.00;21.00;;;;;28.12;56.58;98568.38;6076288;28;97411;-64
2021/07/18 06:10:31;;;;;;;;;29.60;26.00;;;;;28.22;56.05;98565.97;6079999;28;97043;-64
2021/07/18 06:13:35;;;;;;;;;26.20;24.20;;;;;28.35;55.32;98575.91;6071295;28;97390;-65
2021/07/18 06:16:38;;;;;;;;;27.60;24.00;;;;;28.48;55.80;98573.16;6053825;28;96536;-66
2021/07/18 06:19:43;;;;;;;;;24.50;23.50;;;;;28.43;54.97;98572.22;6083372;28;96648;-66
2021/07/18 06:22:47;;;;;;;;;26.00;24.50;;;;;28.46;54.90;98570.72;6051367;28;97790;-64
2021/07/18 06:25:50;;;;;;;;;26.60;25.00;;;;;28.60;54.93;98568.41;6057142;28;98374;-65
2021/07/18 06:28:53;;;;;;;;;28.50;26.75;;;;;28.73;54.86;98572.00;6084218;28;96942;-66
2021/07/18 06:32:00;;;;;;;;;26.00;24.60;;;;;28.96;54.94;98564.81;6056974;28;96746;-65
2021/07/18 06:35:06;;;;;;;;;25.00;23.40;;;;;29.18;53.99;98569.00;6083830;28;97496;-66
2021/07/18 06:38:09;;;;;;;;;27.75;25.00;;;;;29.39;53.43;98563.28;6077713;28;97502;-63
2021/07/18 06:41:13;;;;;;;;;28.00;25.20;;;;;29.54;52.88;98559.75;6076504;28;97137;-66
2021/07/18 06:44:16;;;;;;;;;27.40;26.00;;;;;29.71;52.75;98576.13;6063853;28;98088;-66
2021/07/18 06:47:20;;;;;;;;;32.00;27.50;;;;;29.74;52.30;98572.63;6039467;28;96549;-64
2021/07/18 06:50:25;;;;;;;;;26.00;25.00;;;;;29.65;52.06;98567.25;6080393;28;96677;-64
2021/07/18 06:53:28;;;;;;;;;27.00;26.00;;;;;29.51;52.39;98586.28;6088455;28;96639;-63
2021/07/18 06:56:31;;;;;;;;;28.00;27.00;;;;;29.45;52.86;98579.38;6070940;28;97105;-64
2021/07/18 06:59:35;;;;;;;;;30.00;26.00;;;;;29.42;52.86;98576.50;6057055;28;97542;-64
2021/07/18 07:02:38;;;;;;;;;28.00;26.00;;;;;29.40;52.87;98589.91;6051841;28;96596;-63
2021/07/18 07:05:43;;;;;;;;;27.00;26.00;;;;;29.44;52.98;98597.19;6066170;28;97064;-66
2021/07/18 07:08:46;;;;;;;;;29.00;27.00;;;;;29.46;53.44;98588.50;6050912;28;99697;-65
2021/07/18 07:11:49;;;;;;;;;28.50;26.00;;;;;29.57;53.04;98597.94;6066232;28;97746;-64
2021/07/18 07:14:53;;;;;;;;;29.00;26.00;;;;;29.65;52.80;98597.00;6066373;28;97959;-65
2021/07/18 07:17:57;;;;;;;;;29.00;27.20;;;;;29.69;51.65;98587.59;6032211;28;98287;-65
2021/07/18 07:21:02;;;;;;;;;28.00;27.00;;;;;29.61;51.79;98593.31;6083329;28;97380;-65
2021/07/18 07:24:05;;;;;;;;;27.40;25.40;;;;;29.58;52.38;98588.44;6074516;28;96536;-64
2021/07/18 07:27:09;;;;;;;;;30.40;28.00;;;;;29.68;52.64;98585.97;6065986;28;98464;-63
2021/07/18 07:30:15;;;;;;;;;29.40;26.00;;;;;29.63;51.80;98582.63;6067261;28;98106;-64
2021/07/18 07:33:19;;;;;;;;;29.40;28.40;;;;;29.61;51.94;98584.97;6056484;28;96724;-64
2021/07/18 07:36:24;;;;;;;;;28.00;25.00;;;;;29.71;52.44;98595.56;6051924;28;99990;-65
2021/07/18 07:39:28;;;;;;;;;29.40;26.40;;;;;29.64;52.27;98603.69;6054172;28;96687;-65
2021/07/18 07:42:33;;;;;;;;;26.40;25.40;;;;;29.56;51.99;98594.38;6051361;28;97736;-63
2021/07/18 07:45:36;;;;;;;;;25.60;23.00;;;;;29.46;52.77;98596.84;6064062;28;96674;-65
2021/07/18 07:48:39;;;;;;;;;24.75;22.00;;;;;29.52;52.33;98599.00;6068627;28;97482;-64
2021/07/18 07:51:45;;;;;;;;;27.00;25.00;;;;;29.55;51.63;98592.75;6075464;28;97517;-64
2021/07/18 07:54:48;;;;;;;;;27.00;24.00;;;;;29.77;51.69;98585.00;6073664;28;97652;-63
2021/07/18 07:57:51;;;;;;;;;26.60;25.00;;;;;29.98;51.04;98591.16;6048064;28;97467;-65
2021/07/18 08:00:55;;;;;;;;;27.50;25.50;;;;;30.20;50.93;98600.88;6056161;28;99773;-63
2021/07/18 08:03:58;;;;;;;;;25.40;24.40;;;;;30.38;50.50;98600.16;6057331;28;99098;-64
2021/07/18 08:07:06;;;;;;;;;24.80;23.80;;;;;30.49;50.44;98575.44;6074667;28;97425;-63
2021/07/18 08:10:12;;;;;;;;;24.00;22.40;;;;;30.73;50.01;98591.09;6081348;28;97123;-64
2021/07/18 08:13:16;;;;;;;;;25.60;24.60;;;;;30.87;49.01;98586.66;6067075;28;97520;-64
2021/07/18 08:16:19;;;;;;;;;26.60;24.60;;;;;31.12;48.65;98590.03;6088128;28;97544;-63
2021/07/18 08:19:23;;;;;;;;;26.00;25.00;;;;;31.30;48.63;98573.69;6051920;28;96946;-63
2021/07/18 08:22:28;;;;;;;;;27.00;23.00;;;;;31.37;48.25;98593.38;6062012;28;97546;-64
2021/07/18 08:25:31;;;;;;;;;29.25;27.25;;;;;31.15;48.04;98594.88;6057176;28;96657;-65
2021/07/18 08:28:38;;;;;;;;;22.00;21.60;;;;;31.05;48.34;98591.84;6075360;28;97226;-64
2021/07/18 08:31:41;;;;;;;;;26.60;24.60;;;;;30.91;49.12;98595.91;6083145;28;96639;-64
2021/07/18 08:34:45;;;;;;;;;25.00;24.25;;;;;30.91;49.09;98600.66;6068647;28;96739;-65
2021/07/18 08:37:49;;;;;;;;;25.50;24.50;;;;;30.96;48.98;98603.16;6065073;28;99878;-64
2021/07/18 08:40:55;;;;;;;;;26.80;24.80;;;;;30.96;49.41;98598.41;6081709;28;97486;-65
2021/07/18 08:44:18;;;;;;;;;24.25;24.00;;;;;31.03;49.04;98605.34;6048433;28;96727;-65
2021/07/18 08:47:21;;;;;;;;;28.20;25.80;;;;;30.97;49.13;98611.16;6072867;28;97569;-64
2021/07/18 08:50:26;;;;;;;;;26.60;23.60;;;;;30.93;48.97;98610.28;6076449;28;97435;-65
2021/07/18 08:53:31;;;;;;;;;28.25;26.00;;;;;30.94;49.47;98608.28;6081323;28;96532;-64
2021/07/18 08:56:36;;;;;;;;;27.00;25.00;;;;;31.03;49.56;98603.38;6065468;28;97165;-64
2021/07/18 08:59:39;;;;;;;;;23.50;23.00;;;;;31.11;49.17;98602.34;6081207;28;97481;-63
2021/07/18 09:02:42;;;;;;;;;27.40;23.40;;;;;31.15;48.88;98611.59;6046760;28;96747;-63
2021/07/18 09:05:47;;;;;;;;;26.75;24.25;;;;;31.17;49.08;98614.00;6055605;28;96716;-64
2021/07/18 09:08:51;;;;;;;;;26.60;26.60;;;;;31.05;49.50;98620.50;6073923;28;97437;-63
2021/07/18 09:11:57;;;;;;;;;30.00;27.60;;;;;30.92;49.41;98617.00;6033788;28;96548;-65
2021/07/18 09:15:01;;;;;;;;;27.20;26.40;;;;;30.94;49.47;98613.84;6072601;28;97445;-64
2021/07/18 09:18:09;;;;;;;;;27.20;25.20;;;;;30.92;49.14;98611.44;6078926;28;97951;-64
2021/07/18 09:21:13;;;;;;;;;27.80;25.80;;;;;30.96;49.46;98617.91;6081505;28;97503;-63
2021/07/18 09:24:23;;;;;;;;;33.80;26.40;;;;;31.10;50.15;98602.69;6058702;28;98208;-64
2021/07/18 09:27:27;;;;;;;;;30.00;27.00;;;;;31.29;49.69;98597.97;6073381;28;96580;-65
2021/07/18 09:30:33;;;;;;;;;28.00;27.00;;;;;31.72;48.96;98601.66;6075829;28;97354;-63
2021/07/18 09:33:36;;;;;;;;;30.00;28.00;;;;;31.70;48.46;98607.59;6038788;28;97470;-64
2021/07/18 09:36:39;;;;;;;;;28.00;27.20;;;;;31.59;48.53;98612.16;6074923;28;96609;-64
2021/07/18 09:39:49;;;;;;;;;28.00;26.00;;;;;31.48;48.98;98618.63;6081150;28;97008;-63
2021/07/18 09:42:56;;;;;;;;;29.00;26.00;;;;;31.39;49.05;98628.03;6066337;28;96863;-64
2021/07/18 09:46:01;;;;;;;;;32.00;30.00;;;;;31.23;49.81;98634.81;6075863;28;97994;-64
2021/07/18 09:49:06;;;;;;;;;26.40;25.00;;;;;31.17;49.66;98630.72;6073108;28;97527;-63
2021/07/18 09:52:18;;;;;;;;;27.00;25.00;;;;;31.23;49.28;98610.56;6052958;28;97428;-63
2021/07/18 09:55:24;;;;;;;;;27.75;27.00;;;;;31.18;49.10;98607.28;6077237;28;96420;-65
2021/07/18 09:58:29;;;;;;;;;28.75;26.25;;;;;31.13;49.04;98597.19;6036769;28;96725;-64
2021/07/18 10:01:34;;;;;;;;;29.50;26.50;;;;;31.24;49.73;98622.50;6080717;28;97375;-64
2021/07/18 10:04:41;;;;;;;;;31.00;26.00;;;;;31.25;49.43;98621.34;6079118;28;97627;-63
2021/07/18 10:07:44;;;;;;;;;29.60;26.20;;;;;31.27;49.49;98617.03;6072794;28;97016;-64
2021/07/18 10:10:49;;;;;;;;;28.00;26.00;;;;;31.31;50.04;98617.91;6048283;28;97758;-64
2021/07/18 10:13:57;;;;;;;;;27.00;27.00;;;;;31.35;50.10;98610.44;6027199;28;96737;-64
2021/07/18 10:17:00;;;;;;;;;26.40;25.00;;;;;31.38;48.95;98608.88;6078055;28;97065;-64
2021/07/18 10:20:06;;;;;;;;;26.40;24.00;;;;;31.49;49.48;98601.56;6078026;28;97432;-64
2021/07/18 10:23:09;;;;;;;;;28.60;26.60;;;;;31.68;49.21;98601.56;6076307;28;96612;-63
2021/07/18 10:26:16;;;;;;;;;18.80;18.00;;;;;31.76;46.93;98605.34;6069658;28;96673;-64
2021/07/18 10:29:20;;;;;;;;;16.40;16.00;;;;;31.81;45.07;98616.97;6072346;28;97547;-64
2021/07/18 10:32:25;;;;;;;;;16.00;14.75;;;;;31.91;45.36;98612.00;6039010;28;98646;-64
2021/07/18 10:35:31;;;;;;;;;16.50;14.50;;;;;32.02;44.94;98615.75;6070245;28;98216;-63
2021/07/18 10:38:36;;;;;;;;;16.00;14.50;;;;;32.16;43.94;98604.88;6050434;28;98577;-64
2021/07/18 10:41:45;;;;;;;;;16.00;15.00;;;;;32.28;44.15;98599.16;6055234;28;97088;-64
2021/07/18 10:44:50;;;;;;;;;15.00;14.00;;;;;32.32;43.90;98605.59;6084025;28;96685;-64
2021/07/18 10:48:05;;;;;;;;;16.00;15.00;;;;;32.30;43.25;98607.16;6061111;28;96622;-63
2021/07/18 10:51:09;;;;;;;;;17.00;16.00;;;;;32.31;43.55;98611.53;6076640;28;97171;-65
2021/07/18 10:54:14;;;;;;;;;25.00;21.00;;;;;32.25;46.38;98609.06;6083523;28;97463;-64
2021/07/18 10:57:37;;;;;;;;;23.50;21.75;;;;;32.12;47.15;98606.81;6076248;28;97429;-65
2021/07/18 11:00:49;;;;;;;;;24.60;22.60;;;;;32.02;48.02;98599.03;6055484;28;96639;-63
2021/07/18 11:03:52;;;;;;;;;24.75;22.75;;;;;31.97;48.11;98604.91;6060556;28;96633;-65
2021/07/18 11:07:33;;;;;;;;;22.00;21.00;;;;;31.78;48.23;98606.56;6075094;28;96608;-64
2021/07/18 11:10:50;;;;;;;;;26.60;24.00;;;;;31.73;48.63;98608.84;6050517;28;97803;-64
2021/07/18 11:14:22;;;;;;;;;24.00;22.00;;;;;31.50;48.80;98617.13;6070646;28;96566;-63
2021/07/18 11:17:27;;;;;;;;;25.00;22.80;;;;;31.36;48.99;98614.03;6058546;28;96947;-65
2021/07/18 11:20:55;;;;;;;;;26.80;23.60;;;;;31.20;49.60;98610.47;6076239;28;98072;-64
2021/07/18 11:23:58;;;;;;;;;24.00;22.25;;;;;31.04;50.07;98604.97;6053020;28;97564;-64
2021/07/18 11:27:22;;;;;;;;;25.50;23.25;;;;;30.90;50.01;98612.97;6067172;28;96933;-63
2021/07/18 11:30:41;;;;;;;;;26.00;25.00;;;;;30.70;50.81;98600.16;6066439;28;97548;-64
2021/07/18 11:33:54;;;;;;;;;29.60;26.00;;;;;30.59;50.83;98602.69;6083290;28;96650;-64
2021/07/18 11:37:05;;;;;;;;;30.75;28.75;;;;;30.49;51.09;98598.50;6068547;28;96726;-64
2021/07/18 11:40:10;;;;;;;;;28.20;26.00;;;;;30.49;51.17;98597.69;6081072;28;96526;-65
2021/07/18 11:43:13;;;;;;;;;29.00;24.00;;;;;30.50;50.69;98600.09;6070123;28;96782;-64
2021/07/18 11:46:21;;;;;;;;;30.75;28.75;;;;;30.52;50.50;98596.94;6077954;28;97446;-64
2021/07/18 11:49:33;;;;;;;;;26.00;25.80;;;;;30.60;50.70;98600.69;6075134;28;97627;-64
2021/07/18 11:52:40;;;;;;;;;27.50;25.00;;;;;30.51;51.19;98595.31;6075593;28;97277;-64
2021/07/18 11:55:44;;;;;;;;;29.00;25.60;;;;;30.54;50.96;98591.84;6065685;28;97025;-63
2021/07/18 11:58:47;;;;;;;;;34.00;30.60;;;;;30.53;51.55;98590.22;6081980;28;96490;-64
2021/07/18 12:01:54;;;;;;;;;31.00;27.40;;;;;30.57;51.14;98576.41;6067011;28;97478;-63
2021/07/18 12:05:05;;;;;;;;;26.50;24.00;;;;;30.57;50.66;98573.63;6050491;28;96966;-63
2021/07/18 12:08:10;;;;;;;;;27.75;25.00;;;;;30.73;50.96;98569.66;6080460;28;96628;-64
2021/07/18 12:11:14;;;;;;;;;29.00;28.00;;;;;30.87;50.92;98569.97;6073852;28;96568;-63
2021/07/18 12:14:21;;;;;;;;;28.00;25.00;;;;;30.91;50.04;98570.84;6075043;28;97587;-63
2021/07/18 12:17:26;;;;;;;;;29.60;27.00;;;;;30.99;50.03;98555.09;6059662;28;96843;-63
2021/07/18 12:20:29;;;;;;;;;29.00;26.00;;;;;31.05;49.79;98548.09;6062082;28;97391;-65
2021/07/18 12:23:32;;;;;;;;;26.60;25.00;;;;;31.18;49.78;98543.22;6074320;28;96420;-64
2021/07/18 12:26:36;;;;;;;;;25.33;25.00;;;;;31.38;49.10;98545.63;6051048;28;97036;-64
2021/07/18 12:29:41;;;;;;;;;23.60;21.80;;;;;31.44;48.45;98540.56;6049602;28;97381;-64
2021/07/18 12:32:46;;;;;;;;;22.00;20.00;;;;;31.58;47.14;98524.16;6057478;28;96698;-64
2021/07/18 12:36:00;;;;;;;;;19.75;19.25;;;;;31.72;45.98;98520.81;6049287;28;98471;-63
2021/07/18 12:39:16;;;;;;;;;22.00;20.00;;;;;31.80;45.92;98528.16;6064614;28;96822;-64
2021/07/18 12:42:23;;;;;;;;;19.00;18.75;;;;;31.82;45.39;98525.78;6066484;28;97633;-65
2021/07/18 12:45:26;;;;;;;;;21.00;18.40;;;;;31.89;45.81;98527.91;6066768;28;97566;-63
2021/07/18 12:48:31;;;;;;;;;20.00;19.00;;;;;32.02;45.33;98532.91;6067254;28;97494;-64
2021/07/18 12:51:35;;;;;;;;;18.60;18.00;;;;;32.04;45.01;98538.13;6070631;28;97473;-63
2021/07/18 12:54:40;;;;;;;;;18.80;17.40;;;;;32.06;45.38;98542.13;6066429;28;96675;-63
2021/07/18 12:57:43;;;;;;;;;19.67;19.00;;;;;32.04;45.54;98552.06;6049336;28;99629;-64
2021/07/18 13:00:50;;;;;;;;;20.40;18.40;;;;;32.10;46.31;98559.78;6065405;28;97460;-64
2021/07/18 13:04:02;;;;;;;;;21.00;18.00;;;;;32.10;46.26;98561.75;6065488;28;96741;-64
2021/07/18 13:07:11;;;;;;;;;21.00;19.60;;;;;32.00;47.32;98562.34;6069808;28;97207;-63
2021/07/18 13:10:17;;;;;;;;;24.40;23.40;;;;;31.89;47.53;98566.94;6070273;28;98111;-64
2021/07/18 13:13:30;;;;;;;;;26.20;22.60;;;;;31.63;48.09;98559.25;6072203;28;96608;-63
2021/07/18 13:16:35;;;;;;;;;23.60;22.80;;;;;31.73;47.88;98550.31;6045223;28;96515;-65
2021/07/18 13:19:43;;;;;;;;;33.50;27.25;;;;;31.65;47.77;98538.22;6070336;28;97464;-63
2021/07/18 13:22:47;;;;;;;;;32.50;28.00;;;;;31.48;48.21;98543.41;6068869;28;96456;-63
2021/07/18 13:25:50;;;;;;;;;34.00;30.00;;;;;31.54;48.28;98541.94;6057620;28;98283;-64
2021/07/18 13:28:54;;;;;;;;;31.75;30.00;;;;;31.51;48.31;98549.06;6073856;28;98131;-63
2021/07/18 13:32:10;;;;;;;;;31.20;27.60;;;;;31.47;48.58;98548.19;6067411;28;96679;-63
2021/07/18 13:35:17;;;;;;;;;34.00;30.00;;;;;31.38;48.56;98540.03;6066260;28;97801;-63
2021/07/18 13:38:23;;;;;;;;;33.50;30.00;;;;;31.35;47.83;98532.44;6059409;28;97422;-64
2021/07/18 13:41:26;;;;;;;;;36.60;32.00;;;;;31.48;47.76;98512.75;6086663;28;97001;-63
2021/07/18 13:44:29;;;;;;;;;38.00;31.75;;;;;31.64;47.57;98510.72;6080900;28;96565;-63
2021/07/18 13:47:33;;;;;;;;;32.75;29.75;;;;;31.78;47.17;98511.78;6041854;28;97059;-64
2021/07/18 13:50:40;;;;;;;;;33.75;29.25;;;;;31.88;46.87;98504.78;6043706;28;97692;-64
2021/07/18 13:53:45;;;;;;;;;33.50;30.00;;;;;32.11;47.01;98502.00;6070197;28;96685;-64
2021/07/18 13:56:48;;;;;;;;;34.67;30.33;;;;;32.17;46.37;98508.88;6036364;28;97759;-63
2021/07/18 13:59:51;;;;;;;;;30.67;29.00;;;;;32.26;46.09;98498.28;6084833;28;97091;-63
2021/07/18 14:02:54;;;;;;;;;34.20;30.00;;;;;32.33;45.84;98498.41;6084848;28;96662;-63
2021/07/18 14:06:03;;;;;;;;;34.25;30.00;;;;;32.32;45.38;98505.16;6046159;28;97680;-63
2021/07/18 14:09:17;;;;;;;;;34.00;30.00;;;;;32.32;45.31;98499.56;6066893;28;98448;-63
2021/07/18 14:12:20;;;;;;;;;29.50;26.50;;;;;32.23;44.72;98499.03;6080614;28;96639;-64
2021/07/18 14:15:25;;;;;;;;;31.00;28.00;;;;;32.11;44.60;98488.06;6076796;28;98170;-64
2021/07/18 14:18:28;;;;;;;;;32.00;27.50;;;;;32.07;45.09;98496.34;6073638;28;97885;-64